createdAt,value
2022-12-06T00:01:45.036Z,7.55
2022-12-06T00:04:11.208Z,8.02
2022-12-06T00:06:39.717Z,7.13
2022-12-06T00:09:11.247Z,6.78
2022-12-06T00:14:08.523Z,7.82
2022-12-06T00:16:40.827Z,7.70
2022-12-06T00:19:10.272Z,8.73
2022-12-06T00:21:40.724Z,7.10
2022-12-06T00:24:06.943Z,8.30
2022-12-06T00:26:33.087Z,11.00
2022-12-06T00:28:59.365Z,8.75
2022-12-06T00:31:25.688Z,8.15
2022-12-06T00:33:51.945Z,6.10
2022-12-06T00:36:18.151Z,9.05
2022-12-06T00:38:44.310Z,8.10
2022-12-06T00:41:10.476Z,7.20
2022-12-06T00:43:36.679Z,7.45
2022-12-06T00:46:03.025Z,7.88
2022-12-06T00:48:29.255Z,7.28
2022-12-06T00:50:55.426Z,9.00
2022-12-06T00:53:21.602Z,8.32
2022-12-06T00:55:47.727Z,8.45
2022-12-06T00:58:14.003Z,7.00
2022-12-06T01:00:40.334Z,6.35
2022-12-06T01:03:06.651Z,6.05
2022-12-06T01:05:32.974Z,7.55
2022-12-06T01:07:59.243Z,6.68
2022-12-06T01:10:25.469Z,7.60
2022-12-06T01:12:51.599Z,7.70
2022-12-06T01:15:17.759Z,7.40
2022-12-06T01:17:44.176Z,8.10
2022-12-06T01:20:10.376Z,8.25
2022-12-06T01:22:36.598Z,11.18
2022-12-06T01:25:02.742Z,9.23
2022-12-06T01:27:28.940Z,8.50
2022-12-06T01:29:55.080Z,8.07
2022-12-06T01:32:21.220Z,10.38
2022-12-06T01:34:47.394Z,8.82
2022-12-06T01:37:13.579Z,7.50
2022-12-06T01:39:39.795Z,6.63
2022-12-06T01:42:06.207Z,6.88
2022-12-06T01:44:32.638Z,7.32
2022-12-06T01:46:58.788Z,8.70
2022-12-06T01:49:25.125Z,8.13
2022-12-06T01:51:51.282Z,8.00
2022-12-06T01:54:17.482Z,9.27
2022-12-06T01:56:43.722Z,7.63
2022-12-06T01:59:09.943Z,7.82
2022-12-06T02:01:36.243Z,7.18
2022-12-06T02:04:02.510Z,7.65
2022-12-06T02:06:28.665Z,8.25
2022-12-06T02:08:54.912Z,6.43
2022-12-06T02:11:21.141Z,7.60
2022-12-06T02:13:47.371Z,8.50
2022-12-06T02:16:13.688Z,8.45
2022-12-06T02:18:40.000Z,7.78
2022-12-06T02:21:06.212Z,10.90
2022-12-06T02:23:32.432Z,6.30
2022-12-06T02:25:58.643Z,9.10
2022-12-06T02:28:24.802Z,7.93
2022-12-06T02:30:51.045Z,8.65
2022-12-06T02:33:17.295Z,7.82
2022-12-06T02:35:43.480Z,7.50
2022-12-06T02:38:13.004Z,8.65
2022-12-06T02:40:39.586Z,11.00
2022-12-06T02:43:05.771Z,8.65
2022-12-06T02:45:31.976Z,6.88
2022-12-06T02:47:58.169Z,8.20
2022-12-06T02:50:24.364Z,8.70
2022-12-06T02:52:50.544Z,7.53
2022-12-06T02:55:16.747Z,9.18
2022-12-06T02:57:42.926Z,8.55
2022-12-06T03:00:09.155Z,8.02
2022-12-06T03:02:35.437Z,6.70
2022-12-06T03:05:01.781Z,6.97
2022-12-06T03:07:27.999Z,7.45
2022-12-06T03:09:54.203Z,7.38
2022-12-06T03:12:20.411Z,9.50
2022-12-06T03:14:46.651Z,6.70
2022-12-06T03:17:12.842Z,7.15
2022-12-06T03:19:39.074Z,7.90
2022-12-06T03:22:05.289Z,8.10
2022-12-06T03:24:31.480Z,8.35
2022-12-06T03:26:57.701Z,8.88
2022-12-06T03:29:23.898Z,8.30
2022-12-06T03:31:50.112Z,8.18
2022-12-06T03:34:16.302Z,8.07
2022-12-06T03:36:42.462Z,6.10
2022-12-06T03:39:08.706Z,6.72
2022-12-06T03:41:34.883Z,6.78
2022-12-06T03:44:01.057Z,7.70
2022-12-06T03:46:28.157Z,8.38
2022-12-06T03:48:54.566Z,9.50
2022-12-06T03:51:20.761Z,7.20
2022-12-06T03:53:46.999Z,7.63
2022-12-06T03:56:13.196Z,11.10
2022-12-06T03:58:39.741Z,10.63
2022-12-06T04:01:05.969Z,7.47
2022-12-06T04:03:32.221Z,8.20
2022-12-06T04:05:58.456Z,6.53
2022-12-06T04:08:24.649Z,8.80
2022-12-06T04:10:50.840Z,9.20
2022-12-06T04:13:19.733Z,7.15
2022-12-06T04:15:46.373Z,9.32
2022-12-06T04:18:12.753Z,7.00
2022-12-06T04:20:38.946Z,7.93
2022-12-06T04:23:05.140Z,10.18
2022-12-06T04:25:31.319Z,7.65
2022-12-06T04:27:57.518Z,8.80
2022-12-06T04:30:23.703Z,8.43
2022-12-06T04:32:49.830Z,7.03
2022-12-06T04:35:16.005Z,9.68
2022-12-06T04:37:42.200Z,7.18
2022-12-06T04:40:08.388Z,8.35
2022-12-06T04:42:34.557Z,7.22
2022-12-06T04:45:00.722Z,7.70
2022-12-06T04:50:07.063Z,7.40
2022-12-06T04:52:35.899Z,10.70
2022-12-06T04:55:02.496Z,8.23
2022-12-06T04:57:31.518Z,9.60
2022-12-06T04:59:58.030Z,8.73
2022-12-06T05:02:24.448Z,11.52
2022-12-06T05:04:50.633Z,7.75
2022-12-06T05:07:16.815Z,8.20
2022-12-06T05:09:43.048Z,7.93
2022-12-06T05:12:09.204Z,8.15
2022-12-06T05:14:35.490Z,10.07
2022-12-06T05:17:01.662Z,6.35
2022-12-06T05:19:30.728Z,7.18
2022-12-06T05:21:57.160Z,9.38
2022-12-06T05:24:23.315Z,9.20
2022-12-06T05:26:49.472Z,8.30
2022-12-06T05:29:15.651Z,7.53
2022-12-06T05:31:41.872Z,8.95
2022-12-06T05:34:08.046Z,8.13
2022-12-06T05:36:34.183Z,8.25
2022-12-06T05:39:00.312Z,9.27
2022-12-06T05:41:26.489Z,8.88
2022-12-06T05:43:52.694Z,8.38
2022-12-06T05:46:18.972Z,7.03
2022-12-06T05:48:45.181Z,5.82
2022-12-06T05:51:11.318Z,8.20
2022-12-06T05:53:37.481Z,10.57
2022-12-06T05:56:03.612Z,6.25
2022-12-06T05:58:29.752Z,8.00
2022-12-06T06:00:55.898Z,7.57
2022-12-06T06:03:22.120Z,7.95
2022-12-06T06:05:48.349Z,6.65
2022-12-06T06:08:14.642Z,7.38
2022-12-06T06:10:40.825Z,5.97
2022-12-06T06:13:55.794Z,6.55
2022-12-06T06:15:55.732Z,6.97
2022-12-06T06:18:21.887Z,6.85
2022-12-06T06:20:48.128Z,9.07
2022-12-06T06:23:14.251Z,9.02
2022-12-06T06:25:40.403Z,8.02
2022-12-06T06:28:06.572Z,8.20
2022-12-06T06:30:32.714Z,10.13
2022-12-06T06:32:58.966Z,6.35
2022-12-06T06:35:25.093Z,6.72
2022-12-06T06:37:51.211Z,5.85
2022-12-06T06:40:17.387Z,9.48
2022-12-06T06:42:43.551Z,6.65
2022-12-06T06:45:09.712Z,6.22
2022-12-06T06:47:35.904Z,8.43
2022-12-06T06:53:00.389Z,8.50
2022-12-06T06:55:26.504Z,6.68
2022-12-06T06:57:52.645Z,7.00
2022-12-06T07:00:18.836Z,6.32
2022-12-06T07:02:47.918Z,8.90
2022-12-06T07:05:14.293Z,8.25
2022-12-06T07:07:40.900Z,5.25
2022-12-06T07:10:07.061Z,7.38
2022-12-06T07:12:33.215Z,7.47
2022-12-06T07:14:59.619Z,8.82
2022-12-06T07:17:25.872Z,12.80
2022-12-06T07:19:52.100Z,8.07
2022-12-06T07:22:18.293Z,6.60
2022-12-06T07:24:49.174Z,6.50
2022-12-06T07:27:18.428Z,7.65
2022-12-06T07:29:44.608Z,8.25
2022-12-06T07:32:12.853Z,6.43
2022-12-06T07:34:39.050Z,7.78
2022-12-06T07:37:05.377Z,5.93
2022-12-06T07:39:31.545Z,7.50
2022-12-06T07:41:57.729Z,9.32
2022-12-06T07:44:23.961Z,7.70
2022-12-06T07:46:50.219Z,7.38
2022-12-06T07:49:16.396Z,6.28
2022-12-06T07:51:42.534Z,7.25
2022-12-06T07:54:08.757Z,7.15
2022-12-06T07:56:34.931Z,6.85
2022-12-06T07:59:01.241Z,6.78
2022-12-06T08:01:27.616Z,6.88
2022-12-06T08:03:53.801Z,9.07
2022-12-06T08:06:19.987Z,9.88
2022-12-06T08:08:46.164Z,6.78
2022-12-06T08:11:12.487Z,5.72
2022-12-06T08:13:38.672Z,7.18
2022-12-06T08:16:05.048Z,7.68
2022-12-06T08:18:31.294Z,6.70
2022-12-06T08:20:57.491Z,5.80
2022-12-06T08:23:26.821Z,5.85
2022-12-06T08:25:55.559Z,7.20
2022-12-06T08:28:21.887Z,6.78
2022-12-06T08:30:48.162Z,8.90
2022-12-06T08:33:14.401Z,6.90
2022-12-06T08:35:40.715Z,6.78
2022-12-06T08:38:09.451Z,5.72
2022-12-06T08:40:35.670Z,7.68
2022-12-06T08:43:01.832Z,7.25
2022-12-06T08:45:28.038Z,6.05
2022-12-06T08:47:54.229Z,8.30
2022-12-06T08:50:20.532Z,6.30
2022-12-06T08:52:46.955Z,6.55
2022-12-06T08:55:13.313Z,6.78
2022-12-06T08:57:39.520Z,6.68
2022-12-06T09:00:05.716Z,6.20
2022-12-06T09:02:31.880Z,6.65
2022-12-06T09:04:58.098Z,7.18
2022-12-06T09:07:24.339Z,7.53
2022-12-06T09:09:50.536Z,6.40
2022-12-06T09:12:16.662Z,4.80
2022-12-06T09:14:42.810Z,8.25
2022-12-06T09:17:09.011Z,7.35
2022-12-06T09:19:35.149Z,6.97
2022-12-06T09:22:01.331Z,6.90
2022-12-06T09:24:27.530Z,5.43
2022-12-06T09:26:53.751Z,6.93
2022-12-06T09:29:19.983Z,7.57
2022-12-06T09:31:51.141Z,7.13
2022-12-06T09:34:17.360Z,7.40
2022-12-06T09:36:43.497Z,6.28
2022-12-06T09:39:09.649Z,8.27
2022-12-06T09:41:35.846Z,7.63
2022-12-06T09:44:02.208Z,7.70
2022-12-06T09:46:33.163Z,5.68
2022-12-06T09:49:02.624Z,7.10
2022-12-06T09:51:29.169Z,6.53
2022-12-06T09:56:38.482Z,5.90
2022-12-06T09:59:04.641Z,6.78
2022-12-06T10:01:30.951Z,5.85
2022-12-06T10:03:57.197Z,5.55
2022-12-06T10:06:23.385Z,5.60
2022-12-06T10:08:49.613Z,5.53
2022-12-06T10:11:15.881Z,6.85
2022-12-06T10:13:42.062Z,6.53
2022-12-06T10:16:08.315Z,9.35
2022-12-06T10:18:34.492Z,6.47
2022-12-06T10:21:00.634Z,6.28
2022-12-06T10:23:26.806Z,5.22
2022-12-06T10:25:52.993Z,6.10
2022-12-06T10:28:19.202Z,6.57
2022-12-06T10:30:45.397Z,6.07
2022-12-06T10:33:11.520Z,6.82
2022-12-06T10:35:37.724Z,6.60
2022-12-06T10:38:03.921Z,7.45
2022-12-06T10:40:30.149Z,4.95
2022-12-06T10:42:56.385Z,5.70
2022-12-06T10:45:24.996Z,6.55
2022-12-06T10:47:51.380Z,5.50
2022-12-06T10:50:17.582Z,6.40
2022-12-06T10:52:43.756Z,5.57
2022-12-06T10:55:09.968Z,7.55
2022-12-06T10:57:36.146Z,5.28
2022-12-06T11:00:04.023Z,4.72
2022-12-06T11:02:30.577Z,7.90
2022-12-06T11:04:56.754Z,6.28
2022-12-06T11:07:22.900Z,6.40
2022-12-06T11:09:49.068Z,6.32
2022-12-06T11:12:15.252Z,6.35
2022-12-06T11:14:41.403Z,5.20
2022-12-06T11:17:07.565Z,5.97
2022-12-06T11:19:33.712Z,6.97
2022-12-06T11:21:59.953Z,6.05
2022-12-06T11:24:26.137Z,5.68
2022-12-06T11:26:52.329Z,5.20
2022-12-06T11:29:18.538Z,6.80
2022-12-06T11:31:44.784Z,5.93
2022-12-06T11:34:10.965Z,6.63
2022-12-06T11:36:37.132Z,5.80
2022-12-06T11:39:03.274Z,4.80
2022-12-06T11:41:29.469Z,5.50
2022-12-06T11:43:55.594Z,6.00
2022-12-06T11:46:21.794Z,5.93
2022-12-06T11:48:47.967Z,6.40
2022-12-06T11:51:14.113Z,8.10
2022-12-06T11:53:40.260Z,5.95
2022-12-06T11:56:06.405Z,5.13
2022-12-06T11:58:32.617Z,6.10
2022-12-06T12:00:58.760Z,5.88
2022-12-06T12:03:24.993Z,5.75
2022-12-06T12:05:51.181Z,5.55
2022-12-06T12:08:17.366Z,5.95
2022-12-06T12:10:43.625Z,6.65
2022-12-06T12:13:09.790Z,6.28
2022-12-06T12:15:35.974Z,5.32
2022-12-06T12:18:02.141Z,5.53
2022-12-06T12:20:28.258Z,6.60
2022-12-06T12:22:54.434Z,6.43
2022-12-06T12:25:20.801Z,5.38
2022-12-06T12:27:47.121Z,6.53
2022-12-06T12:30:13.279Z,6.15
2022-12-06T12:32:39.486Z,5.35
2022-12-06T12:35:05.692Z,5.20
2022-12-06T12:37:31.910Z,5.47
2022-12-06T12:39:58.048Z,5.63
2022-12-06T12:42:24.237Z,5.85
2022-12-06T12:44:50.422Z,4.93
2022-12-06T12:47:16.618Z,7.90
2022-12-06T12:49:42.784Z,4.55
2022-12-06T12:52:08.988Z,4.43
2022-12-06T12:54:35.324Z,4.47
2022-12-06T12:57:01.525Z,4.68
2022-12-06T12:59:27.702Z,6.45
2022-12-06T13:01:54.053Z,4.70
2022-12-06T13:04:20.312Z,4.70
2022-12-06T13:06:46.503Z,4.50
2022-12-06T13:09:12.643Z,6.55
2022-12-06T13:11:38.793Z,6.50
2022-12-06T13:14:04.958Z,5.93
2022-12-06T13:16:31.247Z,4.88
2022-12-06T13:18:57.465Z,5.72
2022-12-06T13:21:23.634Z,5.60
2022-12-06T13:23:49.812Z,5.60
2022-12-06T13:26:16.112Z,6.50
2022-12-06T13:28:42.293Z,5.55
2022-12-06T13:31:08.511Z,5.32
2022-12-06T13:33:34.736Z,5.82
2022-12-06T13:36:00.910Z,4.90
2022-12-06T13:38:27.255Z,4.53
2022-12-06T13:40:53.407Z,19.02
2022-12-06T13:43:19.607Z,5.40
2022-12-06T13:45:45.929Z,5.15
2022-12-06T13:48:12.102Z,3.65
2022-12-06T13:50:38.273Z,4.07
2022-12-06T13:53:04.479Z,6.40
2022-12-06T13:55:30.606Z,4.78
2022-12-06T13:57:56.738Z,5.35
2022-12-06T14:00:22.926Z,5.25
2022-12-06T14:02:49.199Z,4.63
2022-12-06T14:05:15.452Z,6.03
2022-12-06T14:07:41.622Z,5.18
2022-12-06T14:10:07.826Z,5.43
2022-12-06T14:12:34.042Z,4.80
2022-12-06T14:15:00.242Z,6.22
2022-12-06T14:17:59.230Z,4.55
2022-12-06T14:20:12.624Z,5.03
2022-12-06T14:22:38.850Z,6.03
2022-12-06T14:25:05.013Z,7.22
2022-12-06T14:27:31.179Z,5.43
2022-12-06T14:29:57.569Z,6.32
2022-12-06T14:32:23.899Z,4.53
2022-12-06T14:34:50.226Z,5.05
2022-12-06T14:37:16.376Z,5.53
2022-12-06T14:39:42.578Z,7.35
2022-12-06T14:42:08.778Z,7.40
2022-12-06T14:44:34.937Z,4.22
2022-12-06T14:47:01.272Z,8.35
2022-12-06T14:49:27.438Z,6.18
2022-12-06T14:51:53.700Z,6.97
2022-12-06T14:54:19.898Z,6.20
2022-12-06T14:56:46.098Z,4.20
2022-12-06T14:59:12.281Z,5.80
2022-12-06T15:01:38.659Z,6.82
2022-12-06T15:04:04.926Z,6.65
2022-12-06T15:06:31.267Z,8.45
2022-12-06T15:08:57.442Z,8.10
2022-12-06T15:11:23.637Z,6.97
2022-12-06T15:13:49.818Z,6.68
2022-12-06T15:16:16.018Z,9.70
2022-12-06T15:18:42.261Z,7.82
2022-12-06T15:21:08.444Z,8.70
2022-12-06T15:23:34.658Z,7.85
2022-12-06T15:26:00.783Z,8.93
2022-12-06T15:28:26.886Z,10.07
2022-12-06T15:30:53.070Z,8.27
2022-12-06T15:33:19.263Z,11.32
2022-12-06T15:35:45.390Z,7.97
2022-12-06T15:38:11.781Z,7.25
2022-12-06T15:40:37.907Z,7.78
2022-12-06T15:43:04.051Z,6.85
2022-12-06T15:45:30.240Z,10.60
2022-12-06T15:47:56.365Z,8.07
2022-12-06T15:50:22.488Z,6.85
2022-12-06T15:52:48.709Z,8.68
2022-12-06T15:55:21.140Z,6.80
2022-12-06T15:57:47.295Z,7.88
2022-12-06T16:00:13.474Z,11.90
2022-12-06T16:02:39.658Z,4.85
2022-12-06T16:05:05.812Z,6.45
2022-12-06T16:07:32.270Z,7.97
2022-12-06T16:09:58.793Z,11.13
2022-12-06T16:12:24.964Z,13.20
2022-12-06T16:14:51.335Z,5.97
2022-12-06T16:17:17.502Z,8.60
2022-12-06T16:19:43.633Z,9.57
2022-12-06T16:22:09.801Z,7.90
2022-12-06T16:24:35.952Z,5.00
2022-12-06T16:27:02.080Z,6.13
2022-12-06T16:29:28.232Z,7.32
2022-12-06T16:31:54.475Z,10.15
2022-12-06T16:34:20.730Z,8.30
2022-12-06T16:36:46.881Z,8.10
2022-12-06T16:39:13.080Z,8.45
2022-12-06T16:41:39.304Z,8.20
2022-12-06T16:44:05.559Z,7.40
2022-12-06T16:46:31.772Z,7.00
2022-12-06T16:49:10.650Z,8.13
2022-12-06T16:51:44.171Z,7.95
2022-12-06T16:54:10.345Z,7.95
2022-12-06T16:56:41.371Z,8.68
2022-12-06T16:59:07.915Z,9.63
2022-12-06T17:01:34.092Z,8.80
2022-12-06T17:04:00.230Z,8.80
2022-12-06T17:06:26.575Z,9.60
2022-12-06T17:08:52.778Z,6.90
2022-12-06T17:11:18.921Z,7.45
2022-12-06T17:13:45.088Z,9.10
2022-12-06T17:16:17.944Z,8.70
2022-12-06T17:18:44.171Z,5.93
2022-12-06T17:21:13.175Z,6.28
2022-12-06T17:23:43.062Z,5.90
2022-12-06T17:26:09.307Z,6.97
2022-12-06T17:28:35.506Z,5.78
2022-12-06T17:31:01.712Z,6.53
2022-12-06T17:33:27.954Z,9.68
2022-12-06T17:35:54.155Z,9.13
2022-12-06T17:38:20.322Z,10.00
2022-12-06T17:40:46.525Z,10.40
2022-12-06T17:43:12.695Z,9.20
2022-12-06T17:45:38.895Z,10.77
2022-12-06T17:48:05.113Z,9.30
2022-12-06T17:50:31.312Z,9.23
2022-12-06T17:52:57.713Z,18.48
2022-12-06T17:55:23.932Z,15.68
2022-12-06T17:57:55.935Z,12.13
2022-12-06T18:00:22.077Z,17.65
2022-12-06T18:02:48.653Z,8.43
2022-12-06T18:05:14.975Z,8.88
2022-12-06T18:07:41.195Z,10.93
2022-12-06T18:10:07.369Z,7.13
2022-12-06T18:12:34.970Z,7.93
2022-12-06T18:15:01.522Z,10.27
2022-12-06T18:17:27.817Z,8.23
2022-12-06T18:19:54.079Z,15.63
2022-12-06T18:22:20.248Z,9.65
2022-12-06T18:24:46.447Z,9.38
2022-12-06T18:27:12.686Z,13.13
2022-12-06T18:29:39.201Z,10.68
2022-12-06T18:32:05.447Z,9.13
2022-12-06T18:34:31.718Z,10.05
2022-12-06T18:36:58.188Z,8.50
2022-12-06T18:39:24.411Z,9.07
2022-12-06T18:41:50.699Z,9.45
2022-12-06T18:44:16.925Z,8.45
2022-12-06T18:46:43.119Z,7.63
2022-12-06T18:49:09.326Z,7.90
2022-12-06T18:51:35.564Z,10.00
2022-12-06T18:54:01.738Z,10.73
2022-12-06T18:56:27.926Z,9.52
2022-12-06T18:58:54.118Z,11.57
2022-12-06T19:01:20.408Z,18.13
2022-12-06T19:03:46.620Z,18.35
2022-12-06T19:06:12.808Z,22.90
2022-12-06T19:08:38.998Z,24.27
2022-12-06T19:11:05.188Z,17.02
2022-12-06T19:13:31.417Z,17.40
2022-12-06T19:15:57.599Z,14.13
2022-12-06T19:18:23.801Z,14.23
2022-12-06T19:20:57.204Z,10.05
2022-12-06T19:23:23.371Z,7.38
2022-12-06T19:25:51.566Z,10.35
2022-12-06T19:28:17.736Z,9.07
2022-12-06T19:30:43.981Z,8.52
2022-12-06T19:33:10.115Z,8.50
2022-12-06T19:35:36.232Z,8.07
2022-12-06T19:38:02.401Z,18.95
2022-12-06T19:40:28.580Z,18.00
2022-12-06T19:42:54.770Z,12.93
2022-12-06T19:45:20.971Z,18.08
2022-12-06T19:47:47.130Z,14.20
2022-12-06T19:50:13.383Z,23.90
2022-12-06T19:52:39.618Z,18.52
2022-12-06T19:55:05.877Z,12.93
2022-12-06T19:57:32.040Z,9.15
2022-12-06T19:59:58.326Z,9.40
2022-12-06T20:02:24.689Z,13.02
2022-12-06T20:04:51.087Z,10.45
2022-12-06T20:07:17.306Z,15.60
2022-12-06T20:09:43.490Z,9.57
2022-12-06T20:12:09.690Z,12.82
2022-12-06T20:14:35.915Z,13.43
2022-12-06T20:17:02.137Z,15.52
2022-12-06T20:19:28.324Z,11.82
2022-12-06T20:21:54.527Z,12.93
2022-12-06T20:24:20.665Z,14.93
2022-12-06T20:26:46.878Z,10.93
2022-12-06T20:29:13.080Z,10.88
2022-12-06T20:31:39.310Z,13.90
2022-12-06T20:34:08.928Z,15.52
2022-12-06T20:36:37.779Z,13.13
2022-12-06T20:39:03.975Z,13.38
2022-12-06T20:41:30.118Z,15.82
2022-12-06T20:43:56.301Z,10.32
2022-12-06T20:46:22.532Z,11.70
2022-12-06T20:48:48.717Z,8.85
2022-12-06T20:51:14.855Z,9.40
2022-12-06T20:53:41.046Z,11.10
2022-12-06T20:56:08.272Z,10.68
2022-12-06T20:58:34.578Z,15.18
2022-12-06T21:01:01.957Z,14.45
2022-12-06T21:03:28.249Z,12.85
2022-12-06T21:05:55.473Z,12.77
2022-12-06T21:08:21.763Z,11.60
2022-12-06T21:11:14.257Z,12.40
2022-12-06T21:13:34.068Z,11.52
2022-12-06T21:16:00.289Z,12.05
2022-12-06T21:18:29.960Z,9.25
2022-12-06T21:20:56.280Z,13.80
2022-12-06T21:23:22.451Z,13.90
2022-12-06T21:25:48.650Z,13.65
2022-12-06T21:28:14.867Z,11.55
2022-12-06T21:30:41.036Z,10.55
2022-12-06T21:33:07.217Z,14.75
2022-12-06T21:35:33.470Z,11.18
2022-12-06T21:37:59.873Z,8.07
2022-12-06T21:40:26.082Z,9.35
2022-12-06T21:42:52.244Z,12.27
2022-12-06T21:45:18.400Z,9.85
2022-12-06T21:47:44.576Z,10.48
2022-12-06T21:50:10.744Z,10.98
2022-12-06T21:52:36.968Z,9.68
2022-12-06T21:55:03.193Z,10.73
2022-12-06T21:57:29.344Z,10.80
2022-12-06T21:59:55.545Z,9.27
2022-12-06T22:02:21.768Z,7.28
2022-12-06T22:04:47.997Z,9.55
2022-12-06T22:07:14.196Z,10.90
2022-12-06T22:09:40.403Z,9.80
2022-12-06T22:12:06.811Z,9.00
2022-12-06T22:14:32.962Z,6.35
2022-12-06T22:16:59.137Z,9.43
2022-12-06T22:19:25.353Z,9.23
2022-12-06T22:21:51.589Z,8.75
2022-12-06T22:24:17.787Z,8.38
2022-12-06T22:26:44.012Z,9.43
2022-12-06T22:29:10.208Z,10.10
2022-12-06T22:31:36.402Z,9.10
2022-12-06T22:34:02.612Z,10.52
2022-12-06T22:36:28.818Z,10.98
2022-12-06T22:38:54.985Z,9.02
2022-12-06T22:41:21.144Z,8.93
2022-12-06T22:43:47.316Z,8.45
2022-12-06T22:46:13.571Z,9.00
2022-12-06T22:48:39.784Z,7.93
2022-12-06T22:51:05.943Z,7.50
2022-12-06T22:53:32.087Z,10.07
2022-12-06T22:55:58.262Z,7.43
2022-12-06T22:58:24.416Z,9.38
2022-12-06T23:00:50.584Z,9.82
2022-12-06T23:03:16.776Z,8.02
2022-12-06T23:05:42.982Z,8.75
2022-12-06T23:08:09.244Z,6.18
2022-12-06T23:10:35.437Z,9.13
2022-12-06T23:13:01.645Z,8.80
2022-12-06T23:15:27.782Z,9.07
2022-12-06T23:17:54.015Z,10.45
2022-12-06T23:20:21.318Z,7.72
2022-12-06T23:22:47.474Z,7.82
2022-12-06T23:25:13.697Z,7.82
2022-12-06T23:27:39.889Z,9.15
2022-12-06T23:30:06.013Z,7.53
2022-12-06T23:32:32.184Z,8.30
2022-12-06T23:34:58.364Z,7.75
2022-12-06T23:37:24.574Z,12.68
2022-12-06T23:39:50.712Z,8.13
2022-12-06T23:42:16.896Z,9.10
2022-12-06T23:44:43.127Z,8.20
2022-12-06T23:47:09.324Z,8.18
2022-12-06T23:49:35.506Z,9.02
2022-12-06T23:52:01.711Z,11.93
2022-12-06T23:54:27.866Z,9.18
2022-12-06T23:56:54.039Z,7.75
2022-12-06T23:59:20.187Z,11.45
